Latest Weather Observations for Roseworthy

IDS60801

Issued at 2:02 am CST Friday 30 September 2016 (issued every 30 minutes, with the page automatically refreshed every 10 minutes)

About weather observations | Map of weather stations | Latest weather observations for SA | Other Formats
Station Details ID: 023122 Name: ROSEWORTHY AWS Lat: -34.51 Lon: 138.68 Height: 65.0 m
Data from the previous 72 hours. | See also: Recent months at Roseworthy
Date/Time
CST
Temp
°C
App
Temp
°C
Dew
Point
°C
Rel
Hum
%
Delta-T
°C
Wind Press
QNH
hPa
Press
MSL
hPa
Rain since
9am
mm
Dir  Spd
km/h
Gust
km/h
Spd
kts
Gust
kts
30/02:00am 9.2 4.8 7.6 90 0.8 WSW 20 28 11 15 997.0 - 14.6
30/01:30am 9.5 3.7 8.1 91 0.7 SW 28 39 15 21 996.4 - 14.6
30/01:00am 10.0 3.3 8.1 88 0.9 SW 33 46 18 25 995.8 - 14.2
30/12:53am 10.5 3.2 8.8 89 0.8 WSW 37 56 20 30 995.6 - 14.2
30/12:30am 10.3 0.9 8.9 91 0.7 W 48 70 26 38 994.8 - 14.0
30/12:00am 10.1 1.0 8.5 90 0.8 W 46 65 25 35 994.9 994.9 13.6
 
Date/Time
CST
Temp
°C
App
Temp
°C
Dew
Point
°C
Rel
Hum
%
Delta-T
°C
Wind Press
QNH
hPa
Press
MSL
hPa
Rain since
9am
mm
Dir  Spd
km/h
Gust
km/h
Spd
kts
Gust
kts
29/11:47pm 10.0 0.9 8.4 90 0.8 W 46 70 25 38 994.8 - 13.6
29/11:30pm 9.9 1.8 8.5 91 0.7 W 41 56 22 30 994.8 - 13.4
29/11:00pm 10.1 1.4 8.5 90 0.8 W 44 67 24 36 995.1 - 12.2
29/10:30pm 10.3 1.2 8.4 88 0.9 W 46 65 25 35 995.3 - 11.6
29/10:07pm 10.5 1.4 8.4 87 1.0 W 46 69 25 37 995.3 - 11.4
29/10:00pm 10.5 1.8 8.4 87 1.0 W 44 59 24 32 995.3 - 11.4
29/09:31pm 10.5 1.4 8.3 86 1.1 W 46 65 25 35 995.3 - 11.2
29/09:30pm 10.6 1.1 8.4 86 1.1 W 48 65 26 35 995.3 - 11.2
29/09:00pm 10.6 1.9 8.4 86 1.1 W 44 65 24 35 995.3 995.3 11.2
29/08:54pm 10.6 1.9 8.4 86 1.1 W 44 65 24 35 995.3 - 11.2
29/08:30pm 10.5 1.8 8.4 87 1.0 W 44 59 24 32 995.0 - 11.2
29/08:09pm 10.6 1.5 8.5 87 1.0 W 46 65 25 35 994.7 - 11.2
29/08:00pm 10.5 1.4 8.6 88 0.9 W 46 63 25 34 994.7 - 11.2
29/07:38pm 10.6 1.6 8.7 88 0.9 W 46 65 25 35 994.2 - 11.2
29/07:30pm 10.7 1.3 8.6 87 1.0 W 48 65 26 35 994.0 - 11.2
29/07:00pm 10.6 2.0 8.7 88 0.9 W 44 63 24 34 993.4 - 11.2
29/06:35pm 10.6 1.6 8.9 89 0.8 W 46 65 25 35 992.7 - 11.2
29/06:30pm 10.6 0.9 9.0 90 0.8 W 50 65 27 35 992.6 - 11.2
29/06:00pm 10.8 2.3 9.1 89 0.9 W 44 69 24 37 992.0 992.0 10.8
29/05:30pm 11.1 2.3 9.4 89 0.9 W 46 69 25 37 991.0 - 10.8
29/05:00pm 11.2 2.0 9.5 89 0.9 W 48 70 26 38 990.1 - 10.6
29/04:30pm 11.4 1.4 9.5 88 1.0 W 52 74 28 40 989.3 - 10.2
29/04:00pm 11.4 1.5 9.8 90 0.8 W 52 76 28 41 988.2 - 10.2
29/03:30pm 11.8 1.3 10.2 90 0.8 W 56 76 30 41 987.3 - 9.8
29/03:03pm 11.3 2.2 10.0 92 0.7 W 48 67 26 36 986.9 - 9.6
29/03:00pm 11.1 2.0 9.9 92 0.6 W 48 65 26 35 986.9 986.9 9.6
29/02:30pm 11.5 3.4 9.9 90 0.8 W 43 61 23 33 987.2 - 8.0
29/02:09pm 11.3 3.9 9.7 90 0.8 W 39 59 21 32 987.2 - 7.8
29/02:00pm 11.3 3.5 9.9 91 0.7 W 41 54 22 29 987.1 - 7.2
29/01:30pm 11.3 1.1 9.9 91 0.7 W 54 72 29 39 986.6 - 6.6
29/01:00pm 11.5 3.7 9.9 90 0.8 W 41 59 22 32 986.6 - 3.2
29/12:51pm 12.0 3.8 9.7 86 1.2 W 43 61 23 33 986.7 - 2.4
29/12:30pm 13.6 5.3 7.8 68 2.9 W 41 57 22 31 986.6 - 2.4
29/12:04pm 14.1 5.5 8.7 70 2.7 W 44 63 24 34 986.7 - 2.4
29/12:00pm 14.1 4.5 7.9 66 3.1 W 48 61 26 33 986.7 986.7 2.4
29/11:30am 13.9 4.2 7.4 65 3.2 W 48 67 26 36 986.4 - 2.4
29/11:00am 13.7 4.9 9.4 75 2.2 W 46 69 25 37 986.1 - 2.4
29/10:30am 12.2 4.6 9.2 82 1.5 W 39 57 21 31 985.7 - 2.4
29/10:00am 10.8 0.5 8.0 83 1.4 W 52 72 28 39 985.1 - 2.4
29/09:30am 9.8 0.3 8.4 91 0.7 W 48 67 26 36 984.1 - 2.4
29/09:07am 10.1 0.5 7.9 86 1.1 W 48 87 26 47 983.3 - 1.0
29/09:04am 11.0 2.5 8.6 85 1.2 W 43 67 23 36 983.0 - 0.0
29/09:00am 11.8 3.8 9.0 83 1.4 W 41 57 22 31 982.8 982.8 20.8
29/08:30am 11.2 2.1 8.4 83 1.4 W 46 69 25 37 982.1 - 20.8
29/08:00am 10.0 0.8 8.1 88 0.9 WNW 46 69 25 37 981.1 - 20.8
29/07:30am 9.5 0.9 8.1 91 0.7 NW 43 61 23 33 980.4 - 20.6
29/07:28am 9.5 0.9 8.3 92 0.6 NW 43 61 23 33 980.4 - 20.6
29/07:26am 9.4 0.6 8.2 92 0.6 NW 44 61 24 33 980.4 - 20.6
29/07:00am 8.2 -1.6 7.0 92 0.6 NNW 48 72 26 39 980.1 - 19.6
29/06:32am 7.6 -2.4 6.2 91 0.6 N 48 67 26 36 980.7 - 18.2
29/06:30am 7.6 -2.8 6.2 91 0.6 N 50 67 27 36 980.7 - 18.0
29/06:00am 7.4 -3.0 6.0 91 0.6 N 50 69 27 37 981.4 981.4 17.8
29/05:49am 7.3 -2.4 5.9 91 0.6 N 46 65 25 35 981.7 - 17.6
29/05:30am 7.3 -3.2 5.8 90 0.7 N 50 67 27 36 982.5 - 17.0
29/05:12am 7.3 -2.0 5.8 90 0.7 N 44 65 24 35 982.9 - 16.4
29/05:00am 7.4 -1.8 5.5 88 0.9 N 43 57 23 31 983.2 - 15.8
29/04:30am 7.3 -1.5 5.6 89 0.8 N 41 57 22 31 984.5 - 15.6
29/04:01am 7.4 -1.0 5.5 88 0.9 N 39 57 21 31 985.4 - 15.4
29/04:00am 7.4 -1.4 5.5 88 0.9 N 41 57 22 31 985.5 - 15.4
29/03:30am 7.4 -0.6 5.5 88 0.9 NNW 37 56 20 30 986.3 - 15.2
29/03:00am 7.9 0.2 5.5 85 1.1 N 35 56 19 30 986.7 986.7 14.8
29/02:31am 8.0 0.9 5.5 84 1.1 N 32 50 17 27 987.6 - 14.8
29/02:30am 8.0 0.7 5.5 84 1.1 N 33 50 18 27 987.7 - 14.8
29/02:23am 7.8 0.7 5.3 84 1.1 N 32 50 17 27 988.0 - 14.8
29/02:00am 8.1 0.0 5.2 82 1.3 NNW 37 50 20 27 988.8 - 14.6
29/01:30am 8.2 0.0 5.0 80 1.4 NNW 37 57 20 31 989.7 - 14.6
29/01:03am 8.0 0.6 4.9 81 1.4 NNW 33 52 18 28 990.5 - 14.6
29/01:00am 7.9 0.5 5.0 82 1.3 NNW 33 46 18 25 990.5 - 14.6
29/12:30am 7.8 0.7 5.3 84 1.1 N 32 43 17 23 991.4 - 14.6
29/12:00am 7.7 1.3 5.0 83 1.2 N 28 39 15 21 992.2 992.2 14.6
 
Date/Time
CST
Temp
°C
App
Temp
°C
Dew
Point
°C
Rel
Hum
%
Delta-T
°C
Wind Press
QNH
hPa
Press
MSL
hPa
Rain since
9am
mm
Dir  Spd
km/h
Gust
km/h
Spd
kts
Gust
kts
28/11:30pm 8.3 1.1 5.1 80 1.4 NNW 32 43 17 23 992.7 - 14.6
28/11:00pm 8.4 1.3 5.7 83 1.2 NNW 32 43 17 23 992.6 - 14.6
28/10:30pm 8.5 1.9 6.1 85 1.1 NNW 30 39 16 21 993.1 - 14.6
28/10:00pm 8.4 2.2 6.2 86 1.0 NNW 28 39 15 21 993.2 - 14.6
28/09:30pm 8.3 2.5 6.3 87 0.9 NW 26 35 14 19 993.1 - 14.6
28/09:00pm 8.5 3.1 6.5 87 0.9 NW 24 33 13 18 992.8 992.8 14.6
28/08:30pm 9.2 2.9 7.3 88 0.9 NW 30 43 16 23 993.0 - 14.6
28/08:16pm 9.9 3.7 8.0 88 0.9 NNW 30 48 16 26 993.2 - 14.4
28/08:00pm 10.1 5.1 8.0 87 1.0 NW 24 35 13 19 992.8 - 14.4
28/07:30pm 10.5 5.6 8.6 88 0.9 NW 24 35 13 19 993.2 - 14.2
28/07:02pm 11.3 5.7 8.7 84 1.3 NW 28 46 15 25 993.0 - 14.2
28/07:00pm 11.2 6.1 9.1 87 1.0 NW 26 35 14 19 993.0 - 14.2
28/06:30pm 11.7 6.4 9.8 88 1.0 WNW 28 39 15 21 992.3 - 14.0
28/06:00pm 12.0 5.8 10.1 88 1.0 W 33 44 18 24 991.5 991.6 14.0
28/05:30pm 13.6 6.7 10.4 81 1.7 WNW 37 61 20 33 991.1 - 14.0
28/05:00pm 14.3 8.3 12.2 87 1.1 W 35 57 19 31 989.3 - 14.0
28/04:50pm 14.9 10.3 12.2 84 1.5 WNW 28 54 15 29 988.8 - 14.0
28/04:30pm 15.3 11.3 13.1 87 1.2 N 26 37 14 20 988.2 - 13.8
28/04:08pm 15.0 9.7 12.5 85 1.4 ENE 32 50 17 27 986.7 - 12.8
28/04:00pm 15.0 10.4 12.3 84 1.5 NE 28 41 15 22 987.6 - 12.6
28/03:50pm 15.3 10.6 12.1 81 1.7 ENE 28 46 15 25 987.7 - 12.2
28/03:30pm 15.7 9.7 12.1 79 2.0 ENE 35 50 19 27 987.4 - 12.2
28/03:02pm 15.9 8.4 12.1 78 2.1 NE 43 61 23 33 989.2 - 12.2
28/03:00pm 15.9 8.2 12.1 78 2.1 NE 44 61 24 33 989.1 989.2 12.2
28/02:30pm 15.7 7.8 11.5 76 2.3 NE 44 63 24 34 990.2 - 12.2
28/02:00pm 16.5 9.1 12.3 76 2.3 NE 43 63 23 34 992.3 - 12.2
28/01:47pm 15.4 7.9 10.8 74 2.4 ENE 41 59 22 32 993.2 - 12.2
28/01:30pm 14.8 9.3 11.8 82 1.6 ENE 32 44 17 24 994.5 - 12.2
28/01:00pm 11.9 7.4 10.0 88 1.0 ENE 24 33 13 18 996.3 - 12.2
28/12:30pm 11.2 6.5 9.3 88 1.0 E 24 32 13 17 997.7 - 10.4
28/12:00pm 10.8 5.2 8.9 88 0.9 ENE 28 35 15 19 999.3 999.3 7.8
28/11:30am 11.2 5.9 8.6 84 1.3 NE 26 39 14 21 1000.3 - 3.6
28/11:00am 13.1 7.3 7.8 70 2.6 NE 28 39 15 21 999.8 - 0.0
28/10:30am 15.1 8.3 6.9 58 4.0 ENE 32 43 17 23 999.5 - 0.0
28/10:00am 16.5 9.2 7.2 54 4.6 NE 35 54 19 29 1000.9 - 0.0
28/09:58am 16.7 9.6 7.9 56 4.5 NE 35 54 19 29 1000.9 - 0.0
28/09:30am 17.0 10.3 8.2 56 4.5 NE 33 48 18 26 1001.9 - 0.0
28/09:00am 16.1 9.3 7.1 55 4.5 NE 32 48 17 26 1003.2 1003.3 0.0
28/08:41am 15.3 9.0 7.3 59 4.0 NE 30 48 16 26 1003.6 - 0.0
28/08:30am 15.0 8.5 8.0 63 3.5 NE 32 41 17 22 1004.0 - 0.0
28/08:00am 13.3 7.0 7.3 67 2.9 NE 30 39 16 21 1004.8 - 0.0
28/07:30am 11.6 5.4 6.3 70 2.5 ENE 28 39 15 21 1005.3 - 0.0
28/07:00am 10.0 3.7 5.6 74 2.0 ENE 28 37 15 20 1005.7 - 0.0
28/06:30am 8.3 2.3 5.4 82 1.3 NE 26 33 14 18 1006.3 - 0.0
28/06:00am 7.9 2.7 5.4 84 1.1 NE 22 32 12 17 1006.8 1006.9 0.0
28/05:30am 7.8 2.6 5.3 84 1.1 NE 22 30 12 16 1007.2 - 0.0
28/05:00am 7.6 2.3 5.2 85 1.1 NE 22 32 12 17 1007.5 - 0.0
28/04:30am 7.2 1.5 4.7 84 1.1 NE 24 30 13 16 1007.9 - 0.0
28/04:00am 7.0 1.6 4.7 85 1.0 NE 22 28 12 15 1008.1 - 0.0
28/03:30am 6.7 1.6 4.2 84 1.1 NE 20 26 11 14 1008.5 - 0.0
28/03:00am 6.7 1.7 4.4 85 1.0 NE 20 26 11 14 1009.0 1009.0 0.0
28/02:30am 6.2 1.3 4.2 87 0.9 NE 19 22 10 12 1009.5 - 0.0
28/02:00am 6.1 1.6 4.3 88 0.8 NE 17 20 9 11 1010.0 - 0.0
28/01:30am 5.8 1.7 4.1 89 0.7 NE 15 20 8 11 1010.6 - 0.0
28/01:00am 5.9 1.0 4.2 89 0.7 NE 19 20 10 11 1011.3 - 0.0
28/12:30am 5.9 1.4 4.4 90 0.6 NE 17 20 9 11 1011.6 - 0.0
28/12:00am 5.9 1.4 4.4 90 0.6 NE 17 20 9 11 1011.9 1011.9 0.0
 
Date/Time
CST
Temp
°C
App
Temp
°C
Dew
Point
°C
Rel
Hum
%
Delta-T
°C
Wind Press
QNH
hPa
Press
MSL
hPa
Rain since
9am
mm
Dir  Spd
km/h
Gust
km/h
Spd
kts
Gust
kts
27/11:30pm 5.8 2.1 4.3 90 0.6 NE 13 17 7 9 1012.1 - 0.0
27/11:00pm 6.0 2.3 4.5 90 0.6 NE 13 15 7 8 1012.1 - 0.0
27/10:30pm 6.5 2.2 5.1 91 0.6 NE 17 22 9 12 1012.5 - 0.0
27/10:00pm 5.5 1.4 4.2 91 0.6 ENE 15 15 8 8 1012.7 - 0.0
27/09:30pm 5.7 2.0 4.3 91 0.6 NE 13 15 7 8 1012.9 - 0.0
27/09:00pm 6.0 2.0 4.8 92 0.5 NE 15 17 8 9 1013.3 1013.3 0.0
27/08:30pm 5.7 2.0 4.2 90 0.6 NE 13 15 7 8 1013.4 - 0.0
27/08:00pm 5.8 2.1 4.3 90 0.6 ENE 13 15 7 8 1013.7 - 0.0
27/07:30pm 6.0 3.4 4.0 87 0.9 ENE 7 9 4 5 1013.5 - 0.0
27/07:00pm 7.2 4.9 4.9 85 1.0 E 6 9 3 5 1013.7 - 0.0
27/06:30pm 9.6 7.4 6.1 79 1.6 WSW 7 7 4 4 1013.7 - 0.0
27/06:00pm 12.1 9.6 8.0 76 2.0 W 11 13 6 7 1013.5 1013.5 0.0
27/05:30pm 15.0 13.1 8.9 67 3.1 W 9 11 5 6 1013.5 - 0.0
27/05:00pm 15.6 13.1 8.1 61 3.8 WNW 11 17 6 9 1013.5 - 0.0
27/04:30pm 16.4 13.7 9.1 62 3.8 WNW 13 17 7 9 1013.6 - 0.0
27/04:00pm 16.0 12.6 7.5 57 4.2 WNW 15 20 8 11 1013.7 - 0.0
27/03:30pm 15.9 12.9 7.7 58 4.1 W 13 19 7 10 1013.7 - 0.0
27/03:00pm 15.2 11.8 7.5 60 3.8 W 15 24 8 13 1014.1 1014.1 0.0
27/02:30pm 15.7 12.6 8.7 63 3.6 W 15 20 8 11 1014.3 - 0.0
27/02:00pm 16.7 12.7 8.9 60 4.0 W 20 28 11 15 1014.5 - 0.0
27/01:30pm 16.2 12.1 7.7 57 4.3 W 19 24 10 13 1014.8 - 0.0
27/01:00pm 15.8 12.4 7.8 59 4.0 WNW 15 20 8 11 1014.9 - 0.0
27/12:30pm 15.3 12.0 8.1 62 3.6 WNW 15 28 8 15 1015.4 - 0.0
27/12:00pm 14.3 10.3 6.6 60 3.7 WNW 17 26 9 14 1015.6 1015.7 0.0
27/11:30am 14.5 11.8 7.3 62 3.5 W 11 17 6 9 1015.8 - 0.0
27/11:00am 13.7 10.1 6.8 63 3.3 WNW 15 19 8 10 1016.0 - 0.0
27/10:30am 13.4 9.9 7.2 66 3.0 NW 15 20 8 11 1016.4 - 0.0
27/10:00am 13.3 9.0 7.1 66 3.0 WNW 19 26 10 14 1016.6 - 0.0
27/09:30am 13.4 10.1 9.6 78 1.9 WNW 17 22 9 12 1016.6 - 0.0
27/09:00am 12.7 9.1 8.4 75 2.1 NW 17 20 9 11 1016.4 1016.5 0.0
27/08:30am 11.6 8.8 8.6 82 1.5 NNW 13 17 7 9 1016.5 - 0.0
27/08:00am 9.7 6.3 7.8 88 0.9 NNW 15 19 8 10 1016.4 - 0.0
27/07:30am 7.9 3.9 6.5 91 0.6 N 17 20 9 11 1016.0 - 0.0
27/07:00am 6.6 2.3 5.4 92 0.5 N 17 20 9 11 1015.7 - 0.0
27/06:30am 5.7 1.7 4.7 93 0.4 N 15 19 8 10 1015.5 - 0.0
27/06:00am 5.0 0.8 4.0 93 0.4 N 15 17 8 9 1015.1 1015.2 0.0
27/05:30am 4.1 -0.2 3.1 93 0.4 N 15 17 8 9 1014.9 - 0.0
27/05:00am 3.5 -0.6 2.3 92 0.5 N 13 15 7 8 1014.6 - 0.0
27/04:30am 3.5 -0.6 2.3 92 0.5 N 13 15 7 8 1014.3 - 0.0
27/04:00am 3.6 -0.8 2.6 93 0.4 N 15 17 8 9 1014.1 - 0.0
27/03:30am 3.1 -1.1 1.9 92 0.5 N 13 15 7 8 1013.8 - 0.0
27/03:00am 3.2 -0.9 2.0 92 0.5 N 13 15 7 8 1014.1 1014.1 0.0
27/02:30am 3.1 -0.3 1.9 92 0.5 N 9 11 5 6 1014.0 - 0.0

Other Formats:

Comma delimited format used in spreadsheet applications
http://www.bom.gov.au/fwo/IDS60801/IDS60801.95671.axf

JavaScript Object Notation format (JSON) in row-major order
http://www.bom.gov.au/fwo/IDS60801/IDS60801.95671.json